sensor_id;sensor_type;location;lat;lon;timestamp;pressure;altitude;pressure_sealevel;temperature;humidity
78170;BME280;67412;49.892;14.490;2023-12-28T00:01:19;97309.63;;;1.62;100.00
78170;BME280;67412;49.892;14.490;2023-12-28T00:03:45;97303.75;;;1.63;100.00
78170;BME280;67412;49.892;14.490;2023-12-28T00:06:10;97304.63;;;1.65;100.00
78170;BME280;67412;49.892;14.490;2023-12-28T00:08:35;97311.56;;;1.72;100.00
78170;BME280;67412;49.892;14.490;2023-12-28T00:11:01;97315.00;;;1.77;100.00
78170;BME280;67412;49.892;14.490;2023-12-28T00:13:26;97317.44;;;1.73;100.00
78170;BME280;67412;49.892;14.490;2023-12-28T00:15:51;97305.50;;;1.66;100.00
78170;BME280;67412;49.892;14.490;2023-12-28T00:18:17;97302.78;;;1.57;100.00
78170;BME280;67412;49.892;14.490;2023-12-28T00:20:42;97302.59;;;1.48;100.00
78170;BME280;67412;49.892;14.490;2023-12-28T00:23:07;97309.03;;;1.33;100.00
78170;BME280;67412;49.892;14.490;2023-12-28T00:25:33;97300.38;;;1.22;100.00
78170;BME280;67412;49.892;14.490;2023-12-28T00:27:58;97300.47;;;1.27;100.00
78170;BME280;67412;49.892;14.490;2023-12-28T00:30:24;97293.28;;;1.46;100.00
78170;BME280;67412;49.892;14.490;2023-12-28T00:32:49;97294.91;;;1.43;100.00
78170;BME280;67412;49.892;14.490;2023-12-28T00:35:14;97285.41;;;1.33;100.00
78170;BME280;67412;49.892;14.490;2023-12-28T00:37:39;97274.16;;;1.20;100.00
78170;BME280;67412;49.892;14.490;2023-12-28T00:40:05;97282.28;;;1.04;100.00
78170;BME280;67412;49.892;14.490;2023-12-28T00:42:31;97285.22;;;0.86;100.00
78170;BME280;67412;49.892;14.490;2023-12-28T00:44:56;97291.06;;;0.84;100.00
78170;BME280;67412;49.892;14.490;2023-12-28T00:47:21;97290.97;;;0.79;100.00
78170;BME280;67412;49.892;14.490;2023-12-28T00:49:47;97290.03;;;0.76;100.00
78170;BME280;67412;49.892;14.490;2023-12-28T00:52:12;97285.91;;;0.79;100.00
78170;BME280;67412;49.892;14.490;2023-12-28T00:54:38;97296.13;;;0.84;100.00
78170;BME280;67412;49.892;14.490;2023-12-28T00:57:04;97287.50;;;1.12;100.00
78170;BME280;67412;49.892;14.490;2023-12-28T00:59:29;97283.53;;;1.24;100.00
78170;BME280;67412;49.892;14.490;2023-12-28T01:01:56;97270.34;;;1.37;100.00
78170;BME280;67412;49.892;14.490;2023-12-28T01:04:21;97278.84;;;1.41;100.00
78170;BME280;67412;49.892;14.490;2023-12-28T01:06:49;97282.28;;;1.44;100.00
78170;BME280;67412;49.892;14.490;2023-12-28T01:09:15;97274.53;;;1.37;100.00
78170;BME280;67412;49.892;14.490;2023-12-28T01:11:40;97277.44;;;1.15;100.00
78170;BME280;67412;49.892;14.490;2023-12-28T01:14:06;97277.16;;;1.01;100.00
78170;BME280;67412;49.892;14.490;2023-12-28T01:16:31;97275.38;;;0.98;100.00
78170;BME280;67412;49.892;14.490;2023-12-28T01:18:56;97283.72;;;0.94;100.00
78170;BME280;67412;49.892;14.490;2023-12-28T01:21:22;97279.34;;;0.86;100.00
78170;BME280;67412;49.892;14.490;2023-12-28T01:23:47;97283.66;;;0.91;100.00
78170;BME280;67412;49.892;14.490;2023-12-28T01:26:15;97274.69;;;1.04;100.00
78170;BME280;67412;49.892;14.490;2023-12-28T01:28:42;97267.84;;;1.02;100.00
78170;BME280;67412;49.892;14.490;2023-12-28T01:31:08;97276.88;;;0.89;100.00
78170;BME280;67412;49.892;14.490;2023-12-28T01:33:33;97285.31;;;0.89;100.00
78170;BME280;67412;49.892;14.490;2023-12-28T01:35:59;97293.16;;;1.02;100.00
78170;BME280;67412;49.892;14.490;2023-12-28T01:38:24;97298.44;;;1.11;100.00
78170;BME280;67412;49.892;14.490;2023-12-28T01:40:50;97299.75;;;0.93;100.00
78170;BME280;67412;49.892;14.490;2023-12-28T01:43:15;97305.53;;;0.89;100.00
78170;BME280;67412;49.892;14.490;2023-12-28T01:45:40;97301.81;;;0.75;100.00
78170;BME280;67412;49.892;14.490;2023-12-28T01:48:06;97306.22;;;0.82;100.00
78170;BME280;67412;49.892;14.490;2023-12-28T01:50:32;97301.59;;;1.01;100.00
78170;BME280;67412;49.892;14.490;2023-12-28T01:52:58;97295.44;;;0.91;100.00
78170;BME280;67412;49.892;14.490;2023-12-28T01:55:26;97295.84;;;0.72;100.00
78170;BME280;67412;49.892;14.490;2023-12-28T01:57:52;97293.28;;;0.70;100.00
78170;BME280;67412;49.892;14.490;2023-12-28T02:00:18;97301.69;;;0.69;100.00
78170;BME280;67412;49.892;14.490;2023-12-28T02:02:44;97298.13;;;0.61;100.00
78170;BME280;67412;49.892;14.490;2023-12-28T02:05:11;97295.38;;;0.52;100.00
78170;BME280;67412;49.892;14.490;2023-12-28T02:07:37;97290.28;;;0.51;100.00
78170;BME280;67412;49.892;14.490;2023-12-28T02:10:03;97276.19;;;0.60;100.00
78170;BME280;67412;49.892;14.490;2023-12-28T02:12:28;97268.31;;;0.82;100.00
78170;BME280;67412;49.892;14.490;2023-12-28T02:14:54;97272.66;;;0.89;100.00
78170;BME280;67412;49.892;14.490;2023-12-28T02:17:28;97281.69;;;0.78;100.00
78170;BME280;67412;49.892;14.490;2023-12-28T02:19:55;97269.91;;;0.80;100.00
78170;BME280;67412;49.892;14.490;2023-12-28T02:22:23;97274.22;;;0.84;100.00
78170;BME280;67412;49.892;14.490;2023-12-28T02:27:21;97264.13;;;0.84;100.00
78170;BME280;67412;49.892;14.490;2023-12-28T02:29:46;97264.88;;;0.80;100.00
78170;BME280;67412;49.892;14.490;2023-12-28T02:32:12;97258.25;;;0.85;100.00
78170;BME280;67412;49.892;14.490;2023-12-28T02:34:42;97257.03;;;0.70;100.00
78170;BME280;67412;49.892;14.490;2023-12-28T02:37:12;97257.75;;;0.64;100.00
78170;BME280;67412;49.892;14.490;2023-12-28T02:39:41;97254.03;;;0.48;100.00
78170;BME280;67412;49.892;14.490;2023-12-28T02:42:07;97255.53;;;0.42;100.00
78170;BME280;67412;49.892;14.490;2023-12-28T02:44:33;97258.06;;;0.42;100.00
78170;BME280;67412;49.892;14.490;2023-12-28T02:46:58;97264.66;;;0.35;100.00
78170;BME280;67412;49.892;14.490;2023-12-28T02:49:23;97270.25;;;0.24;100.00
78170;BME280;67412;49.892;14.490;2023-12-28T02:51:48;97276.41;;;0.35;100.00
78170;BME280;67412;49.892;14.490;2023-12-28T02:54:14;97270.41;;;0.30;100.00
78170;BME280;67412;49.892;14.490;2023-12-28T02:56:40;97274.50;;;0.26;100.00
78170;BME280;67412;49.892;14.490;2023-12-28T02:59:06;97272.16;;;0.32;100.00
78170;BME280;67412;49.892;14.490;2023-12-28T03:01:31;97272.28;;;0.37;100.00
78170;BME280;67412;49.892;14.490;2023-12-28T03:03:57;97265.69;;;0.43;100.00
78170;BME280;67412;49.892;14.490;2023-12-28T03:06:22;97261.75;;;0.55;100.00
78170;BME280;67412;49.892;14.490;2023-12-28T03:08:47;97249.16;;;0.56;100.00
78170;BME280;67412;49.892;14.490;2023-12-28T03:11:14;97231.13;;;0.42;100.00
78170;BME280;67412;49.892;14.490;2023-12-28T03:13:39;97236.06;;;0.38;100.00
78170;BME280;67412;49.892;14.490;2023-12-28T03:16:05;97220.03;;;0.36;100.00
78170;BME280;67412;49.892;14.490;2023-12-28T03:18:30;97207.28;;;0.31;100.00
78170;BME280;67412;49.892;14.490;2023-12-28T03:20:56;97219.78;;;0.27;100.00
78170;BME280;67412;49.892;14.490;2023-12-28T03:23:21;97231.44;;;0.20;100.00
78170;BME280;67412;49.892;14.490;2023-12-28T03:25:46;97223.84;;;0.19;100.00
78170;BME280;67412;49.892;14.490;2023-12-28T03:28:11;97218.59;;;0.11;100.00
78170;BME280;67412;49.892;14.490;2023-12-28T03:30:37;97217.75;;;0.11;100.00
78170;BME280;67412;49.892;14.490;2023-12-28T03:33:02;97217.75;;;0.12;100.00
78170;BME280;67412;49.892;14.490;2023-12-28T03:35:28;97215.34;;;0.17;100.00
78170;BME280;67412;49.892;14.490;2023-12-28T03:37:53;97205.13;;;0.12;100.00
78170;BME280;67412;49.892;14.490;2023-12-28T03:40:18;97217.63;;;0.08;100.00
78170;BME280;67412;49.892;14.490;2023-12-28T03:42:44;97226.25;;;0.14;100.00
78170;BME280;67412;49.892;14.490;2023-12-28T03:45:09;97233.09;;;0.20;100.00
78170;BME280;67412;49.892;14.490;2023-12-28T03:47:35;97235.69;;;0.23;100.00
78170;BME280;67412;49.892;14.490;2023-12-28T03:50:00;97238.28;;;0.24;100.00
78170;BME280;67412;49.892;14.490;2023-12-28T03:52:26;97242.50;;;0.25;100.00
78170;BME280;67412;49.892;14.490;2023-12-28T03:54:52;97242.63;;;0.30;100.00
78170;BME280;67412;49.892;14.490;2023-12-28T03:57:17;97231.75;;;0.34;100.00
78170;BME280;67412;49.892;14.490;2023-12-28T03:59:42;97237.84;;;0.42;100.00
78170;BME280;67412;49.892;14.490;2023-12-28T04:02:08;97234.69;;;0.51;100.00
78170;BME280;67412;49.892;14.490;2023-12-28T04:04:33;97235.03;;;0.66;100.00
78170;BME280;67412;49.892;14.490;2023-12-28T04:06:58;97232.81;;;0.79;100.00
78170;BME280;67412;49.892;14.490;2023-12-28T04:09:23;97233.72;;;0.81;100.00
78170;BME280;67412;49.892;14.490;2023-12-28T04:11:49;97225.44;;;0.88;100.00
78170;BME280;67412;49.892;14.490;2023-12-28T04:14:14;97219.59;;;0.91;100.00
78170;BME280;67412;49.892;14.490;2023-12-28T04:16:39;97222.34;;;1.02;100.00
78170;BME280;67412;49.892;14.490;2023-12-28T04:19:05;97212.47;;;1.12;100.00
78170;BME280;67412;49.892;14.490;2023-12-28T04:21:30;97221.03;;;1.20;100.00
78170;BME280;67412;49.892;14.490;2023-12-28T04:23:55;97219.34;;;1.19;100.00
78170;BME280;67412;49.892;14.490;2023-12-28T04:26:21;97221.16;;;1.25;100.00
78170;BME280;67412;49.892;14.490;2023-12-28T04:28:46;97217.94;;;1.33;100.00
78170;BME280;67412;49.892;14.490;2023-12-28T04:31:12;97207.19;;;1.43;100.00
78170;BME280;67412;49.892;14.490;2023-12-28T04:33:37;97219.84;;;1.43;100.00
78170;BME280;67412;49.892;14.490;2023-12-28T04:36:03;97225.75;;;1.44;100.00
78170;BME280;67412;49.892;14.490;2023-12-28T04:38:29;97230.88;;;1.47;100.00
78170;BME280;67412;49.892;14.490;2023-12-28T04:40:55;97235.06;;;1.45;100.00
78170;BME280;67412;49.892;14.490;2023-12-28T04:43:21;97228.38;;;1.50;100.00
78170;BME280;67412;49.892;14.490;2023-12-28T04:45:48;97228.47;;;1.53;100.00
78170;BME280;67412;49.892;14.490;2023-12-28T04:48:14;97224.31;;;1.57;100.00
78170;BME280;67412;49.892;14.490;2023-12-28T04:50:39;97228.75;;;1.68;100.00
78170;BME280;67412;49.892;14.490;2023-12-28T04:53:05;97226.53;;;1.85;100.00
78170;BME280;67412;49.892;14.490;2023-12-28T04:55:30;97231.72;;;1.92;100.00
78170;BME280;67412;49.892;14.490;2023-12-28T04:57:55;97238.41;;;1.89;100.00
78170;BME280;67412;49.892;14.490;2023-12-28T05:00:20;97247.69;;;1.88;100.00
78170;BME280;67412;49.892;14.490;2023-12-28T05:02:46;97251.09;;;1.89;100.00
78170;BME280;67412;49.892;14.490;2023-12-28T05:05:12;97257.81;;;1.87;100.00
78170;BME280;67412;49.892;14.490;2023-12-28T05:07:37;97256.00;;;1.80;100.00
78170;BME280;67412;49.892;14.490;2023-12-28T05:10:03;97254.28;;;1.80;100.00
78170;BME280;67412;49.892;14.490;2023-12-28T05:12:28;97256.00;;;1.80;100.00
78170;BME280;67412;49.892;14.490;2023-12-28T05:14:54;97262.84;;;1.85;100.00
78170;BME280;67412;49.892;14.490;2023-12-28T05:17:19;97273.56;;;1.72;100.00
78170;BME280;67412;49.892;14.490;2023-12-28T05:19:44;97288.75;;;1.72;100.00
78170;BME280;67412;49.892;14.490;2023-12-28T05:22:10;97285.97;;;1.60;100.00
78170;BME280;67412;49.892;14.490;2023-12-28T05:24:36;97290.41;;;1.70;100.00
78170;BME280;67412;49.892;14.490;2023-12-28T05:27:01;97290.88;;;1.96;100.00
78170;BME280;67412;49.892;14.490;2023-12-28T05:29:27;97287.78;;;2.11;100.00
78170;BME280;67412;49.892;14.490;2023-12-28T05:31:52;97288.22;;;2.35;100.00
78170;BME280;67412;49.892;14.490;2023-12-28T05:34:17;97293.34;;;2.38;99.42
78170;BME280;67412;49.892;14.490;2023-12-28T05:36:43;97299.34;;;2.43;99.67
78170;BME280;67412;49.892;14.490;2023-12-28T05:39:11;97291.63;;;2.37;100.00
78170;BME280;67412;49.892;14.490;2023-12-28T05:41:38;97293.28;;;2.35;100.00
78170;BME280;67412;49.892;14.490;2023-12-28T05:44:04;97288.09;;;2.27;100.00
78170;BME280;67412;49.892;14.490;2023-12-28T05:46:29;97289.53;;;2.15;100.00
78170;BME280;67412;49.892;14.490;2023-12-28T05:48:54;97291.25;;;2.16;100.00
78170;BME280;67412;49.892;14.490;2023-12-28T05:51:19;97290.34;;;2.12;100.00
78170;BME280;67412;49.892;14.490;2023-12-28T05:53:45;97289.47;;;2.10;100.00
78170;BME280;67412;49.892;14.490;2023-12-28T05:56:10;97295.19;;;1.99;100.00
78170;BME280;67412;49.892;14.490;2023-12-28T05:58:36;97297.63;;;1.95;100.00
78170;BME280;67412;49.892;14.490;2023-12-28T06:01:02;97293.34;;;1.91;100.00
78170;BME280;67412;49.892;14.490;2023-12-28T06:03:30;97281.47;;;1.89;100.00
78170;BME280;67412;49.892;14.490;2023-12-28T06:05:55;97285.69;;;1.88;100.00
78170;BME280;67412;49.892;14.490;2023-12-28T06:08:20;97289.06;;;1.89;100.00
78170;BME280;67412;49.892;14.490;2023-12-28T06:10:46;97285.72;;;1.91;100.00
78170;BME280;67412;49.892;14.490;2023-12-28T06:13:11;97295.22;;;2.02;100.00
78170;BME280;67412;49.892;14.490;2023-12-28T06:15:36;97285.91;;;2.01;100.00
78170;BME280;67412;49.892;14.490;2023-12-28T06:18:02;97293.69;;;2.10;100.00
78170;BME280;67412;49.892;14.490;2023-12-28T06:20:28;97281.81;;;2.07;100.00
78170;BME280;67412;49.892;14.490;2023-12-28T06:22:53;97290.25;;;2.08;100.00
78170;BME280;67412;49.892;14.490;2023-12-28T06:25:18;97286.16;;;2.13;100.00
78170;BME280;67412;49.892;14.490;2023-12-28T06:27:44;97288.09;;;2.29;100.00
78170;BME280;67412;49.892;14.490;2023-12-28T06:30:09;97294.97;;;2.34;99.90
78170;BME280;67412;49.892;14.490;2023-12-28T06:32:35;97292.47;;;2.37;99.24
78170;BME280;67412;49.892;14.490;2023-12-28T06:35:00;97293.34;;;2.38;98.71
78170;BME280;67412;49.892;14.490;2023-12-28T06:37:25;97290.00;;;2.39;97.88
78170;BME280;67412;49.892;14.490;2023-12-28T06:39:51;97305.28;;;2.45;97.52
78170;BME280;67412;49.892;14.490;2023-12-28T06:42:16;97312.94;;;2.47;97.08
78170;BME280;67412;49.892;14.490;2023-12-28T06:44:41;97311.31;;;2.52;97.00
78170;BME280;67412;49.892;14.490;2023-12-28T06:47:07;97310.41;;;2.47;96.77
78170;BME280;67412;49.892;14.490;2023-12-28T06:49:32;97315.44;;;2.45;96.02
78170;BME280;67412;49.892;14.490;2023-12-28T06:51:57;97310.41;;;2.47;95.74
78170;BME280;67412;49.892;14.490;2023-12-28T06:54:23;97312.16;;;2.52;95.47
78170;BME280;67412;49.892;14.490;2023-12-28T06:56:49;97310.69;;;2.66;94.01
78170;BME280;67412;49.892;14.490;2023-12-28T06:59:16;97307.50;;;2.76;93.24
78170;BME280;67412;49.892;14.490;2023-12-28T07:01:41;97311.03;;;2.84;93.24
78170;BME280;67412;49.892;14.490;2023-12-28T07:04:07;97308.56;;;2.90;91.65
78170;BME280;67412;49.892;14.490;2023-12-28T07:06:33;97305.25;;;2.95;90.90
78170;BME280;67412;49.892;14.490;2023-12-28T07:08:58;97308.72;;;3.00;90.60
78170;BME280;67412;49.892;14.490;2023-12-28T07:11:23;97306.31;;;3.09;88.82
78170;BME280;67412;49.892;14.490;2023-12-28T07:13:49;97318.13;;;3.07;89.62
78170;BME280;67412;49.892;14.490;2023-12-28T07:16:14;97316.50;;;3.12;88.48
78170;BME280;67412;49.892;14.490;2023-12-28T07:18:41;97300.63;;;3.26;87.71
78170;BME280;67412;49.892;14.490;2023-12-28T07:21:07;97311.72;;;3.31;88.80
78170;BME280;67412;49.892;14.490;2023-12-28T07:23:34;97311.63;;;3.27;89.64
78170;BME280;67412;49.892;14.490;2023-12-28T07:26:00;97314.84;;;3.14;90.79
78170;BME280;67412;49.892;14.490;2023-12-28T07:28:25;97315.66;;;3.13;92.32
78170;BME280;67412;49.892;14.490;2023-12-28T07:30:50;97319.19;;;3.21;90.74
78170;BME280;67412;49.892;14.490;2023-12-28T07:33:15;97312.53;;;3.30;90.74
78170;BME280;67412;49.892;14.490;2023-12-28T07:35:41;97313.66;;;3.51;89.73
78170;BME280;67412;49.892;14.490;2023-12-28T07:38:06;97303.72;;;3.67;88.87
78170;BME280;67412;49.892;14.490;2023-12-28T07:40:32;97304.88;;;3.95;87.10
78170;BME280;67412;49.892;14.490;2023-12-28T07:42:57;97303.34;;;4.09;84.87
78170;BME280;67412;49.892;14.490;2023-12-28T07:45:22;97309.41;;;4.22;84.43
78170;BME280;67412;49.892;14.490;2023-12-28T07:47:50;97316.34;;;4.36;85.27
78170;BME280;67412;49.892;14.490;2023-12-28T07:50:16;97321.53;;;4.47;85.57
78170;BME280;67412;49.892;14.490;2023-12-28T07:52:42;97321.66;;;4.59;85.28
78170;BME280;67412;49.892;14.490;2023-12-28T07:55:08;97328.66;;;4.84;82.79
78170;BME280;67412;49.892;14.490;2023-12-28T07:57:34;97325.41;;;5.01;82.39
78170;BME280;67412;49.892;14.490;2023-12-28T07:59:59;97314.50;;;5.17;80.62
78170;BME280;67412;49.892;14.490;2023-12-28T08:02:25;97334.09;;;5.33;79.16
78170;BME280;67412;49.892;14.490;2023-12-28T08:04:50;97334.16;;;5.41;81.18
78170;BME280;67412;49.892;14.490;2023-12-28T08:07:15;97329.13;;;5.50;79.93
78170;BME280;67412;49.892;14.490;2023-12-28T08:09:41;97335.94;;;5.55;77.93
78170;BME280;67412;49.892;14.490;2023-12-28T08:12:06;97331.72;;;5.57;77.36
78170;BME280;67412;49.892;14.490;2023-12-28T08:14:31;97322.41;;;5.62;78.86
78170;BME280;67412;49.892;14.490;2023-12-28T08:16:57;97338.59;;;5.73;78.80
78170;BME280;67412;49.892;14.490;2023-12-28T08:19:22;97329.31;;;5.86;79.64
78170;BME280;67412;49.892;14.490;2023-12-28T08:21:48;97320.88;;;5.98;78.77
78170;BME280;67412;49.892;14.490;2023-12-28T08:24:13;97332.81;;;6.06;77.58
78170;BME280;67412;49.892;14.490;2023-12-28T08:26:38;97330.28;;;6.11;77.71
78170;BME280;67412;49.892;14.490;2023-12-28T08:29:03;97332.84;;;6.20;78.64
78170;BME280;67412;49.892;14.490;2023-12-28T08:31:29;97348.19;;;6.29;77.54
78170;BME280;67412;49.892;14.490;2023-12-28T08:33:55;97337.19;;;6.44;78.34
78170;BME280;67412;49.892;14.490;2023-12-28T08:36:21;97340.63;;;6.65;79.53
78170;BME280;67412;49.892;14.490;2023-12-28T08:38:47;97339.78;;;6.91;77.22
78170;BME280;67412;49.892;14.490;2023-12-28T08:41:19;97342.34;;;7.06;76.81
78170;BME280;67412;49.892;14.490;2023-12-28T08:43:46;97333.81;;;7.28;77.88
78170;BME280;67412;49.892;14.490;2023-12-28T08:46:11;97338.00;;;7.58;77.33
78170;BME280;67412;49.892;14.490;2023-12-28T08:48:36;97343.84;;;8.04;75.54
78170;BME280;67412;49.892;14.490;2023-12-28T08:51:02;97344.63;;;8.32;72.16
78170;BME280;67412;49.892;14.490;2023-12-28T08:53:27;97359.81;;;8.62;71.25
78170;BME280;67412;49.892;14.490;2023-12-28T08:55:53;97346.88;;;8.79;70.17
78170;BME280;67412;49.892;14.490;2023-12-28T08:58:18;97355.28;;;8.99;71.02
78170;BME280;67412;49.892;14.490;2023-12-28T09:00:43;97353.53;;;9.04;70.47
78170;BME280;67412;49.892;14.490;2023-12-28T09:03:10;97345.06;;;8.94;71.74
78170;BME280;67412;49.892;14.490;2023-12-28T09:05:36;97335.75;;;8.83;72.59
78170;BME280;67412;49.892;14.490;2023-12-28T09:08:01;97346.94;;;8.71;70.44
78170;BME280;67412;49.892;14.490;2023-12-28T09:10:26;97333.25;;;8.73;71.52
78170;BME280;67412;49.892;14.490;2023-12-28T09:12:52;97339.22;;;8.76;74.88
78170;BME280;67412;49.892;14.490;2023-12-28T09:15:17;97354.59;;;8.74;75.67
78170;BME280;67412;49.892;14.490;2023-12-28T09:17:42;97334.13;;;8.72;74.83
78170;BME280;67412;49.892;14.490;2023-12-28T09:20:08;97334.97;;;8.76;75.97
78170;BME280;67412;49.892;14.490;2023-12-28T09:22:34;97334.91;;;8.82;76.41
78170;BME280;67412;49.892;14.490;2023-12-28T09:24:59;97331.44;;;8.91;77.94
78170;BME280;67412;49.892;14.490;2023-12-28T09:27:24;97334.81;;;8.94;78.68
78170;BME280;67412;49.892;14.490;2023-12-28T09:29:50;97344.19;;;8.97;78.33
78170;BME280;67412;49.892;14.490;2023-12-28T09:32:16;97343.34;;;8.96;79.30
78170;BME280;67412;49.892;14.490;2023-12-28T09:34:42;97343.28;;;9.07;78.73
78170;BME280;67412;49.892;14.490;2023-12-28T09:37:07;97334.75;;;9.00;79.60
78170;BME280;67412;49.892;14.490;2023-12-28T09:39:33;97339.03;;;9.00;80.03
78170;BME280;67412;49.892;14.490;2023-12-28T09:42:01;97342.41;;;9.05;79.85
78170;BME280;67412;49.892;14.490;2023-12-28T09:44:30;97340.72;;;9.05;81.52
78170;BME280;67412;49.892;14.490;2023-12-28T09:46:56;97335.56;;;9.10;82.58
78170;BME280;67412;49.892;14.490;2023-12-28T09:49:22;97319.34;;;9.09;84.20
78170;BME280;67412;49.892;14.490;2023-12-28T09:51:48;97329.50;;;9.15;82.24
78170;BME280;67412;49.892;14.490;2023-12-28T09:54:13;97324.38;;;9.17;82.34
78170;BME280;67412;49.892;14.490;2023-12-28T09:56:39;97332.09;;;9.14;83.68
78170;BME280;67412;49.892;14.490;2023-12-28T09:59:05;97337.19;;;9.17;84.21
78170;BME280;67412;49.892;14.490;2023-12-28T10:01:32;97341.47;;;9.16;83.98
78170;BME280;67412;49.892;14.490;2023-12-28T10:03:59;97331.22;;;9.16;83.27
78170;BME280;67412;49.892;14.490;2023-12-28T10:06:24;97325.22;;;9.22;82.63
78170;BME280;67412;49.892;14.490;2023-12-28T10:08:50;97328.59;;;9.22;82.78
78170;BME280;67412;49.892;14.490;2023-12-28T10:11:17;97319.94;;;9.34;81.88
78170;BME280;67412;49.892;14.490;2023-12-28T10:13:43;97320.75;;;9.38;82.26
78170;BME280;67412;49.892;14.490;2023-12-28T10:16:12;97310.44;;;9.45;80.03
78170;BME280;67412;49.892;14.490;2023-12-28T10:18:44;97309.53;;;9.49;80.04
78170;BME280;67412;49.892;14.490;2023-12-28T10:21:09;97301.00;;;9.49;79.93
78170;BME280;67412;49.892;14.490;2023-12-28T10:23:35;97299.25;;;9.55;78.93
78170;BME280;67412;49.892;14.490;2023-12-28T10:26:01;97309.44;;;9.61;79.12
78170;BME280;67412;49.892;14.490;2023-12-28T10:28:27;97312.84;;;9.63;79.77
78170;BME280;67412;49.892;14.490;2023-12-28T10:30:56;97312.84;;;9.63;79.49
78170;BME280;67412;49.892;14.490;2023-12-28T10:33:21;97304.22;;;9.67;79.59
78170;BME280;67412;49.892;14.490;2023-12-28T10:35:49;97287.97;;;9.70;78.71
78170;BME280;67412;49.892;14.490;2023-12-28T10:38:16;97289.69;;;9.69;78.68
78170;BME280;67412;49.892;14.490;2023-12-28T10:40:42;97299.94;;;9.69;78.77
78170;BME280;67412;49.892;14.490;2023-12-28T10:43:08;97296.56;;;9.66;80.29
78170;BME280;67412;49.892;14.490;2023-12-28T10:45:39;97305.06;;;9.69;79.34
78170;BME280;67412;49.892;14.490;2023-12-28T10:48:05;97313.53;;;9.76;79.22
78170;BME280;67412;49.892;14.490;2023-12-28T10:50:47;97306.66;;;9.80;78.94
78170;BME280;67412;49.892;14.490;2023-12-28T10:53:36;97304.03;;;9.86;77.60
78170;BME280;67412;49.892;14.490;2023-12-28T11:01:24;97297.13;;;9.91;77.41
78170;BME280;67412;49.892;14.490;2023-12-28T11:04:01;97306.53;;;9.92;78.15
78170;BME280;67412;49.892;14.490;2023-12-28T11:06:30;97296.34;;;9.86;78.00
78170;BME280;67412;49.892;14.490;2023-12-28T11:08:55;97292.03;;;9.86;77.68
78170;BME280;67412;49.892;14.490;2023-12-28T11:11:23;97286.16;;;9.78;78.93
78170;BME280;67412;49.892;14.490;2023-12-28T11:13:49;97284.44;;;9.79;77.77
78170;BME280;67412;49.892;14.490;2023-12-28T11:16:17;97288.66;;;9.83;76.43
78170;BME280;67412;49.892;14.490;2023-12-28T11:18:43;97294.72;;;9.77;77.59
78170;BME280;67412;49.892;14.490;2023-12-28T11:21:14;97301.56;;;9.77;76.66
78170;BME280;67412;49.892;14.490;2023-12-28T11:23:41;97297.28;;;9.76;76.37
78170;BME280;67412;49.892;14.490;2023-12-28T11:26:18;97297.28;;;9.76;76.27
78170;BME280;67412;49.892;14.490;2023-12-28T11:28:44;97309.31;;;9.74;75.70
78170;BME280;67412;49.892;14.490;2023-12-28T11:31:18;97313.63;;;9.68;76.99
78170;BME280;67412;49.892;14.490;2023-12-28T11:33:45;97322.16;;;9.69;75.69
78170;BME280;67412;49.892;14.490;2023-12-28T11:36:10;97316.22;;;9.64;76.74
78170;BME280;67412;49.892;14.490;2023-12-28T11:38:38;97315.38;;;9.65;75.81
78170;BME280;67412;49.892;14.490;2023-12-28T11:41:05;97306.88;;;9.60;76.49
78170;BME280;67412;49.892;14.490;2023-12-28T11:43:34;97293.31;;;9.49;77.29
78170;BME280;67412;49.892;14.490;2023-12-28T11:46:01;97295.06;;;9.45;77.13
78170;BME280;67412;49.892;14.490;2023-12-28T11:48:30;97289.84;;;9.53;77.12
78170;BME280;67412;49.892;14.490;2023-12-28T11:50:57;97282.97;;;9.59;76.13
78170;BME280;67412;49.892;14.490;2023-12-28T11:53:23;97289.72;;;9.65;76.49
78170;BME280;67412;49.892;14.490;2023-12-28T11:55:49;97287.97;;;9.68;76.96
78170;BME280;67412;49.892;14.490;2023-12-28T11:58:19;97298.31;;;9.61;77.30
78170;BME280;67412;49.892;14.490;2023-12-28T12:00:44;97289.75;;;9.60;77.74
78170;BME280;67412;49.892;14.490;2023-12-28T12:03:13;97289.00;;;9.52;78.61
78170;BME280;67412;49.892;14.490;2023-12-28T12:05:39;97294.13;;;9.54;78.55
78170;BME280;67412;49.892;14.490;2023-12-28T12:08:06;97293.34;;;9.46;79.50
78170;BME280;67412;49.892;14.490;2023-12-28T12:10:34;97288.31;;;9.37;80.25
78170;BME280;67412;49.892;14.490;2023-12-28T12:12:59;97279.78;;;9.36;80.34
78170;BME280;67412;49.892;14.490;2023-12-28T12:15:24;97274.63;;;9.41;81.25
78170;BME280;67412;49.892;14.490;2023-12-28T12:17:50;97278.06;;;9.37;82.39
78170;BME280;67412;49.892;14.490;2023-12-28T12:20:15;97276.41;;;9.31;83.85
78170;BME280;67412;49.892;14.490;2023-12-28T12:22:41;97276.44;;;9.27;84.57
78170;BME280;67412;49.892;14.490;2023-12-28T12:25:07;97274.78;;;9.26;84.34
78170;BME280;67412;49.892;14.490;2023-12-28T12:27:33;97271.34;;;9.23;84.68
78170;BME280;67412;49.892;14.490;2023-12-28T12:29:59;97269.66;;;9.22;85.45
78170;BME280;67412;49.892;14.490;2023-12-28T12:32:24;97262.91;;;9.12;86.77
78170;BME280;67412;49.892;14.490;2023-12-28T12:34:50;97265.44;;;9.17;85.13
78170;BME280;67412;49.892;14.490;2023-12-28T12:37:16;97250.91;;;9.17;85.98
78170;BME280;67412;49.892;14.490;2023-12-28T12:39:42;97250.09;;;9.14;86.49
78170;BME280;67412;49.892;14.490;2023-12-28T12:42:13;97249.25;;;9.13;87.18
78170;BME280;67412;49.892;14.490;2023-12-28T12:44:38;97257.78;;;9.12;86.91
78170;BME280;67412;49.892;14.490;2023-12-28T12:47:04;97256.09;;;9.13;86.57
78170;BME280;67412;49.892;14.490;2023-12-28T12:49:29;97252.75;;;9.05;88.17
78170;BME280;67412;49.892;14.490;2023-12-28T12:51:54;97250.19;;;9.05;88.48
78170;BME280;67412;49.892;14.490;2023-12-28T12:54:20;97252.69;;;9.08;88.21
78170;BME280;67412;49.892;14.490;2023-12-28T12:56:45;97244.19;;;9.04;87.81